Picture Butte, Canada
Current Conditions -  °F | °C
As of 1:00 AM on Monday 26 Jan 2015 (Local Time) from CYQL Reporting Station
Clear Clear  
Wind Chill: 43°   Ceiling: Unl
Heat Index: 48°   Visibility: 9mi
Dew Point: 30°   Wind: 12mph
Humidity: 50%   Direction: 230°SW
Pressure: 29.95"   Gusts: NA
Location:  49.87°N, 112.78°W
Report Text: CYQL 260800Z AUTO 23010KT 9SM CLR 09/M01 A2995 RMK SLP148
Loading
Personal Weather Stations






























Interactive Weather Map New forecast layout! Learn more

10-Day Weather Forecast

Advertisements
Track Severe Weather on mobile